createdAt,value
2023-04-07T00:01:09.119Z,25.75
2023-04-07T00:03:38.864Z,25.23
2023-04-07T00:06:07.070Z,22.58
2023-04-07T00:08:34.504Z,23.85
2023-04-07T00:11:02.016Z,25.67
2023-04-07T00:13:30.615Z,24.63
2023-04-07T00:15:58.380Z,26.02
2023-04-07T00:18:26.153Z,26.95
2023-04-07T00:20:53.575Z,25.95
2023-04-07T00:23:21.314Z,22.50
2023-04-07T00:25:49.508Z,28.75
2023-04-07T00:28:17.059Z,35.05
2023-04-07T00:30:44.439Z,30.60
2023-04-07T00:33:11.971Z,25.50
2023-04-07T00:35:39.482Z,28.67
2023-04-07T00:38:07.022Z,25.15
2023-04-07T00:40:34.981Z,24.20
2023-04-07T00:43:02.499Z,30.45
2023-04-07T00:45:29.894Z,30.30
2023-04-07T00:47:58.856Z,27.15
2023-04-07T00:50:26.748Z,24.83
2023-04-07T00:52:54.981Z,28.75
2023-04-07T00:55:22.501Z,28.75
2023-04-07T00:57:50.626Z,26.45
2023-04-07T01:00:18.531Z,29.70
2023-04-07T01:02:58.997Z,29.20
2023-04-07T01:05:40.467Z,26.20
2023-04-07T01:08:50.212Z,20.33
2023-04-07T01:11:25.630Z,26.30
2023-04-07T01:13:55.685Z,27.17
2023-04-07T01:16:48.561Z,27.27
2023-04-07T01:19:36.459Z,25.63
2023-04-07T01:22:12.528Z,31.70
2023-04-07T01:24:58.397Z,31.98
2023-04-07T01:27:38.280Z,34.92
2023-04-07T01:30:10.563Z,24.80
2023-04-07T01:32:40.822Z,24.52
2023-04-07T01:35:12.956Z,29.17
2023-04-07T01:40:09.078Z,24.45
2023-04-07T01:42:38.471Z,27.75
2023-04-07T01:45:07.366Z,28.50
2023-04-07T01:47:37.620Z,30.55
2023-04-07T01:50:09.212Z,21.88
2023-04-07T01:52:37.854Z,22.77
2023-04-07T01:55:06.173Z,24.20
2023-04-07T01:57:37.568Z,23.70
2023-04-07T02:00:12.409Z,28.70
2023-04-07T02:02:55.150Z,27.98
2023-04-07T02:05:23.541Z,33.03
2023-04-07T02:07:58.144Z,24.80
2023-04-07T02:10:28.136Z,28.55
2023-04-07T02:13:00.384Z,28.48
2023-04-07T02:15:28.752Z,21.25
2023-04-07T02:17:58.388Z,23.98
2023-04-07T02:20:26.116Z,26.48
2023-04-07T02:22:54.498Z,25.70
2023-04-07T02:25:30.980Z,25.38
2023-04-07T02:27:59.806Z,23.90
2023-04-07T02:30:28.177Z,23.00
2023-04-07T02:32:57.083Z,29.20
2023-04-07T02:35:24.922Z,34.97
2023-04-07T02:37:52.345Z,26.65
2023-04-07T02:40:19.923Z,26.98
2023-04-07T02:42:47.650Z,22.48
2023-04-07T02:45:16.119Z,25.55
2023-04-07T02:47:43.701Z,23.38
2023-04-07T02:50:11.478Z,24.63
2023-04-07T02:52:39.046Z,27.35
2023-04-07T02:55:12.160Z,23.55
2023-04-07T02:57:39.812Z,19.73
2023-04-07T03:00:14.746Z,28.08
2023-04-07T03:02:54.595Z,26.35
2023-04-07T03:05:22.320Z,22.33
2023-04-07T03:07:49.812Z,25.90
2023-04-07T03:10:17.568Z,21.20
2023-04-07T03:12:45.034Z,23.85
2023-04-07T03:15:12.557Z,22.65
2023-04-07T03:17:44.980Z,22.75
2023-04-07T03:20:12.585Z,28.30
2023-04-07T03:22:41.119Z,29.15
2023-04-07T03:25:15.047Z,24.45
2023-04-07T03:27:42.611Z,30.23
2023-04-07T03:30:12.926Z,23.33
2023-04-07T03:32:40.850Z,26.98
2023-04-07T03:35:08.807Z,25.48
2023-04-07T03:37:36.692Z,34.90
2023-04-07T03:40:07.494Z,27.65
2023-04-07T03:42:36.597Z,25.63
2023-04-07T03:45:07.951Z,30.15
2023-04-07T03:47:37.838Z,31.05
2023-04-07T03:50:07.160Z,28.27
2023-04-07T03:52:42.015Z,27.70
2023-04-07T03:55:21.277Z,26.25
2023-04-07T03:57:49.298Z,22.58
2023-04-07T04:00:17.037Z,26.38
2023-04-07T04:02:46.649Z,22.40
2023-04-07T04:05:19.661Z,22.60
2023-04-07T04:07:47.457Z,25.42
2023-04-07T04:10:16.269Z,26.30
2023-04-07T04:12:48.787Z,34.75
2023-04-07T04:15:16.446Z,37.35
2023-04-07T04:17:44.047Z,30.90
2023-04-07T04:20:13.031Z,36.75
2023-04-07T04:22:46.875Z,33.88
2023-04-07T04:25:15.101Z,29.88
2023-04-07T04:27:47.474Z,31.15
2023-04-07T04:30:18.865Z,45.65
2023-04-07T04:32:57.190Z,31.00
2023-04-07T04:35:39.590Z,32.00
2023-04-07T04:38:10.874Z,30.17
2023-04-07T04:40:42.579Z,27.65
2023-04-07T04:43:10.448Z,33.42
2023-04-07T04:45:40.581Z,39.17
2023-04-07T04:48:11.559Z,38.28
2023-04-07T04:50:39.143Z,35.40
2023-04-07T04:53:11.092Z,32.72
2023-04-07T04:55:48.285Z,30.20
2023-04-07T04:58:20.669Z,29.73
2023-04-07T05:03:30.681Z,26.38
2023-04-07T05:06:02.291Z,30.05
2023-04-07T05:08:30.818Z,37.95
2023-04-07T05:10:58.552Z,30.02
2023-04-07T05:13:31.249Z,31.65
2023-04-07T05:16:01.653Z,37.73
2023-04-07T05:18:30.275Z,28.65
2023-04-07T05:20:59.256Z,29.00
2023-04-07T05:23:28.421Z,28.98
2023-04-07T05:25:56.421Z,32.85
2023-04-07T05:28:25.351Z,31.63
2023-04-07T05:30:55.620Z,30.63
2023-04-07T05:33:27.895Z,36.45
2023-04-07T05:35:55.888Z,29.50
2023-04-07T05:38:23.249Z,32.88
2023-04-07T05:40:52.813Z,34.00
2023-04-07T05:43:31.560Z,29.65
2023-04-07T05:45:59.119Z,38.47
2023-04-07T05:48:26.679Z,42.47
2023-04-07T05:50:56.086Z,32.50
2023-04-07T05:53:23.499Z,38.58
2023-04-07T05:55:51.095Z,28.23
2023-04-07T05:58:37.350Z,26.77
2023-04-07T06:01:04.848Z,27.05
2023-04-07T06:03:32.432Z,29.92
2023-04-07T06:06:10.463Z,23.48
2023-04-07T06:08:38.136Z,23.25
2023-04-07T06:11:06.005Z,34.05
2023-04-07T06:13:34.741Z,26.92
2023-04-07T06:16:02.260Z,33.45
2023-04-07T06:18:29.761Z,35.30
2023-04-07T06:20:57.135Z,22.92
2023-04-07T06:23:26.370Z,24.58
2023-04-07T06:25:53.908Z,27.27
2023-04-07T06:28:22.989Z,24.20
2023-04-07T06:30:50.821Z,28.20
2023-04-07T06:33:22.146Z,25.10
2023-04-07T06:35:49.685Z,26.58
2023-04-07T06:38:17.172Z,31.73
2023-04-07T06:40:44.664Z,24.08
2023-04-07T06:43:12.027Z,29.80
2023-04-07T06:45:44.401Z,28.20
2023-04-07T06:48:11.916Z,26.67
2023-04-07T06:50:39.417Z,23.58
2023-04-07T06:53:07.003Z,23.23
2023-04-07T06:55:34.584Z,26.80
2023-04-07T06:58:02.064Z,27.98
2023-04-07T07:00:31.073Z,27.23
2023-04-07T07:02:58.930Z,29.92
2023-04-07T07:05:27.150Z,28.83
2023-04-07T07:07:54.786Z,29.90
2023-04-07T07:10:22.752Z,27.52
2023-04-07T07:12:51.121Z,33.45
2023-04-07T07:15:18.839Z,28.50
2023-04-07T07:17:46.598Z,28.40
2023-04-07T07:20:14.221Z,29.17
2023-04-07T07:22:41.644Z,26.30
2023-04-07T07:25:09.375Z,27.20
2023-04-07T07:27:36.823Z,29.73
2023-04-07T07:30:04.622Z,32.03
2023-04-07T07:32:32.096Z,29.25
2023-04-07T07:34:59.562Z,31.95
2023-04-07T07:37:28.066Z,32.30
2023-04-07T07:39:56.326Z,26.85
2023-04-07T07:42:23.801Z,31.17
2023-04-07T07:44:51.541Z,30.55
2023-04-07T07:47:18.977Z,34.85
2023-04-07T07:49:46.559Z,34.70
2023-04-07T07:52:14.106Z,28.30
2023-04-07T07:54:41.737Z,28.73
2023-04-07T07:57:09.338Z,33.55
2023-04-07T07:59:36.877Z,29.92
2023-04-07T08:02:04.588Z,30.33
2023-04-07T08:04:32.082Z,31.25
2023-04-07T08:06:59.480Z,36.50
2023-04-07T08:09:27.207Z,40.33
2023-04-07T08:11:54.606Z,32.95
2023-04-07T08:14:22.118Z,31.35
2023-04-07T08:16:49.537Z,36.38
2023-04-07T08:19:17.071Z,32.38
2023-04-07T08:21:44.497Z,35.33
2023-04-07T08:24:11.987Z,41.28
2023-04-07T08:26:39.382Z,32.58
2023-04-07T08:29:06.788Z,33.05
2023-04-07T08:31:34.531Z,38.50
2023-04-07T08:34:01.991Z,31.92
2023-04-07T08:36:30.274Z,32.33
2023-04-07T08:38:59.031Z,33.25
2023-04-07T08:41:42.551Z,33.15
2023-04-07T08:44:11.261Z,31.42
2023-04-07T08:46:39.936Z,35.97
2023-04-07T08:49:14.100Z,33.90
2023-04-07T08:51:53.699Z,34.47
2023-04-07T08:54:22.630Z,31.02
2023-04-07T08:56:50.728Z,32.38
2023-04-07T08:59:18.787Z,34.28
2023-04-07T09:01:47.316Z,40.75
2023-04-07T09:04:15.117Z,38.35
2023-04-07T09:06:43.459Z,43.20
2023-04-07T09:09:10.879Z,41.22
2023-04-07T09:11:40.329Z,45.45
2023-04-07T09:14:08.004Z,39.55
2023-04-07T09:16:36.072Z,41.75
2023-04-07T09:19:03.551Z,48.75
2023-04-07T09:21:52.342Z,39.20
2023-04-07T09:24:27.313Z,41.70
2023-04-07T09:27:16.542Z,36.42
2023-04-07T09:29:46.502Z,40.00
2023-04-07T09:32:38.636Z,42.50
2023-04-07T09:35:06.584Z,35.65
2023-04-07T09:37:34.374Z,35.88
2023-04-07T09:40:02.013Z,33.60
2023-04-07T09:42:34.466Z,40.95
2023-04-07T09:45:02.203Z,33.67
2023-04-07T09:47:31.579Z,32.75
2023-04-07T09:50:01.990Z,39.13
2023-04-07T09:52:48.809Z,40.47
2023-04-07T09:55:17.128Z,40.42
2023-04-07T09:57:45.508Z,33.95
2023-04-07T10:00:13.595Z,39.90
2023-04-07T10:02:41.855Z,30.08
2023-04-07T10:05:11.103Z,37.38
2023-04-07T10:07:39.654Z,29.65
2023-04-07T10:10:08.751Z,27.73
2023-04-07T10:12:38.276Z,32.08
2023-04-07T10:15:06.725Z,29.05
2023-04-07T10:17:36.284Z,30.63
2023-04-07T10:20:07.294Z,29.42
2023-04-07T10:22:36.197Z,28.40
2023-04-07T10:25:12.656Z,32.85
2023-04-07T10:27:53.826Z,28.98
2023-04-07T10:30:29.491Z,30.65
2023-04-07T10:32:57.173Z,32.63
2023-04-07T10:35:25.402Z,28.83
2023-04-07T10:38:08.179Z,28.83
2023-04-07T10:40:37.014Z,33.50
2023-04-07T10:43:09.568Z,35.38
2023-04-07T10:45:49.156Z,36.45
2023-04-07T10:48:18.623Z,31.88
2023-04-07T10:51:08.063Z,29.85
2023-04-07T10:53:35.566Z,35.22
2023-04-07T10:56:03.151Z,30.67
2023-04-07T10:58:33.994Z,34.17
2023-04-07T11:01:01.587Z,33.00
2023-04-07T11:03:30.568Z,36.67
2023-04-07T11:06:08.532Z,34.50
2023-04-07T11:08:38.133Z,31.13
2023-04-07T11:11:09.330Z,34.50
2023-04-07T11:13:46.758Z,33.88
2023-04-07T11:16:16.672Z,34.03
2023-04-07T11:18:45.149Z,35.95
2023-04-07T11:21:12.525Z,35.35
2023-04-07T11:23:42.218Z,33.47
2023-04-07T11:26:11.628Z,37.65
2023-04-07T11:28:49.998Z,36.00
2023-04-07T11:31:31.513Z,36.72
2023-04-07T11:33:59.363Z,34.53
2023-04-07T11:36:40.678Z,34.30
2023-04-07T11:39:22.221Z,31.25
2023-04-07T11:41:51.176Z,39.85
2023-04-07T11:44:18.678Z,34.47
2023-04-07T11:46:56.536Z,35.33
2023-04-07T11:49:26.100Z,30.52
2023-04-07T11:52:06.855Z,32.83
2023-04-07T11:54:43.959Z,34.88
2023-04-07T11:57:14.561Z,29.73
2023-04-07T11:59:42.329Z,33.65
2023-04-07T12:02:10.252Z,31.50
2023-04-07T12:04:40.377Z,37.45
2023-04-07T12:07:11.971Z,39.17
2023-04-07T12:09:40.194Z,33.08
2023-04-07T12:12:08.713Z,33.90
2023-04-07T12:14:37.086Z,34.83
2023-04-07T12:17:04.857Z,84.85
2023-04-07T12:19:36.118Z,35.05
2023-04-07T12:22:04.027Z,32.72
2023-04-07T12:24:32.531Z,33.28
2023-04-07T12:27:00.232Z,39.13
2023-04-07T12:29:28.034Z,37.17
2023-04-07T12:31:56.436Z,35.03
2023-04-07T12:34:23.926Z,36.92
2023-04-07T12:36:51.673Z,37.80
2023-04-07T12:39:19.340Z,38.13
2023-04-07T12:41:48.491Z,33.67
2023-04-07T12:44:16.704Z,34.40
2023-04-07T12:46:44.215Z,35.15
2023-04-07T12:49:11.767Z,32.35
2023-04-07T12:51:40.262Z,32.72
2023-04-07T12:54:07.931Z,36.30
2023-04-07T12:56:35.548Z,34.10
2023-04-07T12:59:03.037Z,36.33
2023-04-07T13:01:30.569Z,34.72
2023-04-07T13:03:58.231Z,42.72
2023-04-07T13:06:25.692Z,43.08
2023-04-07T13:08:53.151Z,33.70
2023-04-07T13:11:21.945Z,32.38
2023-04-07T13:13:49.705Z,34.53
2023-04-07T13:16:17.470Z,36.15
2023-04-07T13:18:44.947Z,39.40
2023-04-07T13:21:43.073Z,40.30
2023-04-07T13:23:59.729Z,33.13
2023-04-07T13:26:28.276Z,35.03
2023-04-07T13:28:55.694Z,39.97
2023-04-07T13:31:23.808Z,35.40
2023-04-07T13:33:51.752Z,39.53
2023-04-07T13:36:20.600Z,39.95
2023-04-07T13:38:50.262Z,39.17
2023-04-07T13:41:17.871Z,41.78
2023-04-07T13:43:45.493Z,39.85
2023-04-07T13:46:27.268Z,44.05
2023-04-07T13:48:56.846Z,38.35
2023-04-07T13:51:24.416Z,38.72
2023-04-07T13:53:52.152Z,38.47
2023-04-07T13:56:19.767Z,40.50
2023-04-07T13:58:47.993Z,35.72
2023-04-07T14:01:15.509Z,33.25
2023-04-07T14:03:43.325Z,35.97
2023-04-07T14:06:10.925Z,37.25
2023-04-07T14:08:38.362Z,33.25
2023-04-07T14:11:05.985Z,34.10
2023-04-07T14:13:33.440Z,36.95
2023-04-07T14:16:00.983Z,34.90
2023-04-07T14:18:28.558Z,35.80
2023-04-07T14:20:56.013Z,36.85
2023-04-07T14:23:34.276Z,42.00
2023-04-07T14:26:04.047Z,37.47
2023-04-07T14:28:31.998Z,39.42
2023-04-07T14:30:59.540Z,39.78
2023-04-07T14:33:26.920Z,36.33
2023-04-07T14:35:54.327Z,39.22
2023-04-07T14:38:25.629Z,35.47
2023-04-07T14:40:53.076Z,41.58
2023-04-07T14:43:20.503Z,38.47
2023-04-07T14:45:48.075Z,35.97
2023-04-07T14:48:17.135Z,35.58
2023-04-07T14:50:44.657Z,38.22
2023-04-07T14:53:12.149Z,34.15
2023-04-07T14:55:41.532Z,41.70
2023-04-07T14:58:09.389Z,39.13
2023-04-07T15:00:36.891Z,41.58
2023-04-07T15:03:04.808Z,39.28
2023-04-07T15:05:33.450Z,35.83
2023-04-07T15:08:01.651Z,40.78
2023-04-07T15:10:30.020Z,39.33
2023-04-07T15:12:57.532Z,40.88
2023-04-07T15:15:25.090Z,38.70
2023-04-07T15:17:52.546Z,40.95
2023-04-07T15:20:19.992Z,39.05
2023-04-07T15:22:47.611Z,40.90
2023-04-07T15:25:15.055Z,38.50
2023-04-07T15:27:42.584Z,40.85
2023-04-07T15:30:10.492Z,36.13
2023-04-07T15:32:37.938Z,37.10
2023-04-07T15:35:06.186Z,37.20
2023-04-07T15:37:33.685Z,37.85
2023-04-07T15:40:01.146Z,39.22
2023-04-07T15:42:28.709Z,42.63
2023-04-07T15:44:56.148Z,65.05
2023-04-07T15:47:23.565Z,35.35
2023-04-07T15:49:51.001Z,26.50
2023-04-07T15:52:18.507Z,31.73
2023-04-07T15:54:46.022Z,26.13
2023-04-07T15:57:15.378Z,29.38
2023-04-07T15:59:42.951Z,23.55
2023-04-07T16:02:12.938Z,22.73
2023-04-07T16:04:41.879Z,12.77
2023-04-07T16:07:09.410Z,12.00
2023-04-07T16:09:36.907Z,16.80
2023-04-07T16:12:04.416Z,23.50
2023-04-07T16:14:31.921Z,15.65
2023-04-07T16:16:59.476Z,10.25
2023-04-07T16:19:27.038Z,9.88
2023-04-07T16:21:54.763Z,9.65
2023-04-07T16:24:22.361Z,9.55
2023-04-07T16:26:51.419Z,12.35
2023-04-07T16:29:19.855Z,14.82
2023-04-07T16:31:47.304Z,10.38
2023-04-07T16:34:15.058Z,11.75
2023-04-07T16:36:42.564Z,15.35
2023-04-07T16:39:10.103Z,10.85
2023-04-07T16:41:37.544Z,22.27
2023-04-07T16:44:05.033Z,33.25
2023-04-07T16:46:32.712Z,36.75
2023-04-07T16:49:00.177Z,40.92
2023-04-07T16:51:28.536Z,45.60
2023-04-07T16:53:56.029Z,44.13
2023-04-07T16:56:25.093Z,43.97
2023-04-07T16:58:52.627Z,50.17
2023-04-07T17:01:20.139Z,58.22
2023-04-07T17:03:51.540Z,54.60
2023-04-07T17:06:19.331Z,45.85
2023-04-07T17:08:48.817Z,42.55
2023-04-07T17:11:16.262Z,41.25
2023-04-07T17:13:43.762Z,39.72
2023-04-07T17:16:14.807Z,40.13
2023-04-07T17:18:42.242Z,40.00
2023-04-07T17:21:09.687Z,38.15
2023-04-07T17:23:37.464Z,40.95
2023-04-07T17:26:05.008Z,47.40
2023-04-07T17:28:32.568Z,37.35
2023-04-07T17:31:00.183Z,43.55
2023-04-07T17:33:28.972Z,37.28
2023-04-07T17:35:57.620Z,41.80
2023-04-07T17:38:25.126Z,36.85
2023-04-07T17:40:58.052Z,43.13
2023-04-07T17:43:26.092Z,39.33
2023-04-07T17:45:53.642Z,43.25
2023-04-07T17:48:21.160Z,38.00
2023-04-07T17:50:49.151Z,37.13
2023-04-07T17:53:17.330Z,34.08
2023-04-07T17:55:45.512Z,39.95
2023-04-07T17:58:12.884Z,38.38
2023-04-07T18:00:40.478Z,40.85
2023-04-07T18:03:08.193Z,31.48
2023-04-07T18:05:36.335Z,34.05
2023-04-07T18:08:03.826Z,38.38
2023-04-07T18:10:31.269Z,37.40
2023-04-07T18:12:58.757Z,31.13
2023-04-07T18:15:26.625Z,32.65
2023-04-07T18:17:55.053Z,34.15
2023-04-07T18:20:22.649Z,28.70
2023-04-07T18:22:53.628Z,35.33
2023-04-07T18:25:21.821Z,29.30
2023-04-07T18:27:50.289Z,31.10
2023-04-07T18:30:17.837Z,29.48
2023-04-07T18:32:45.608Z,30.15
2023-04-07T18:35:13.181Z,29.65
2023-04-07T18:37:43.635Z,31.02
2023-04-07T18:40:12.118Z,30.02
2023-04-07T18:42:39.614Z,32.55
2023-04-07T18:45:07.982Z,31.60
2023-04-07T18:47:35.437Z,34.53
2023-04-07T18:50:03.420Z,32.80
2023-04-07T18:52:31.013Z,27.65
2023-04-07T18:54:58.964Z,30.30
2023-04-07T18:57:26.519Z,29.98
2023-04-07T18:59:53.947Z,29.05
2023-04-07T19:02:21.514Z,27.40
2023-04-07T19:04:49.417Z,23.92
2023-04-07T19:07:16.934Z,23.70
2023-04-07T19:09:44.376Z,26.58
2023-04-07T19:12:11.851Z,27.30
2023-04-07T19:14:39.284Z,22.75
2023-04-07T19:17:07.063Z,20.92
2023-04-07T19:19:34.598Z,20.15
2023-04-07T19:22:02.428Z,21.35
2023-04-07T19:24:29.946Z,21.38
2023-04-07T19:26:57.869Z,19.08
2023-04-07T19:29:25.300Z,26.48
2023-04-07T19:31:54.676Z,21.02
2023-04-07T19:34:22.133Z,21.77
2023-04-07T19:36:49.647Z,20.52
2023-04-07T19:39:17.202Z,25.20
2023-04-07T19:41:44.681Z,25.50
2023-04-07T19:44:12.114Z,21.33
2023-04-07T19:46:39.604Z,35.53
2023-04-07T19:49:07.025Z,30.73
2023-04-07T19:51:35.326Z,24.88
2023-04-07T19:54:03.478Z,27.63
2023-04-07T19:56:31.276Z,28.80
2023-04-07T19:58:58.851Z,29.35
2023-04-07T20:01:26.409Z,27.52
2023-04-07T20:03:54.042Z,35.35
2023-04-07T20:06:24.814Z,35.55
2023-04-07T20:08:52.954Z,33.17
2023-04-07T20:11:21.684Z,32.67
2023-04-07T20:13:49.509Z,37.42
2023-04-07T20:16:17.141Z,29.98
2023-04-07T20:18:44.698Z,32.38
2023-04-07T20:21:12.547Z,32.30
2023-04-07T20:23:40.753Z,25.88
2023-04-07T20:26:09.727Z,27.95
2023-04-07T20:28:37.284Z,28.55
2023-04-07T20:31:04.882Z,33.28
2023-04-07T20:33:32.280Z,29.85
2023-04-07T20:35:59.766Z,27.92
2023-04-07T20:38:27.466Z,29.20
2023-04-07T20:40:54.895Z,32.75
2023-04-07T20:43:23.656Z,31.02
2023-04-07T20:45:52.253Z,30.25
2023-04-07T20:48:23.974Z,32.22
2023-04-07T20:50:52.049Z,27.45
2023-04-07T20:53:20.255Z,29.00
2023-04-07T20:55:47.893Z,25.13
2023-04-07T20:58:16.672Z,34.80
2023-04-07T21:00:44.816Z,26.58
2023-04-07T21:03:12.926Z,27.23
2023-04-07T21:05:41.021Z,29.05
2023-04-07T21:08:08.455Z,27.92
2023-04-07T21:10:36.585Z,26.38
2023-04-07T21:13:04.068Z,25.95
2023-04-07T21:15:31.825Z,31.55
2023-04-07T21:17:59.321Z,29.80
2023-04-07T21:20:26.745Z,31.77
2023-04-07T21:22:54.117Z,34.67
2023-04-07T21:25:21.658Z,27.33
2023-04-07T21:27:49.027Z,30.33
2023-04-07T21:30:16.739Z,27.83
2023-04-07T21:32:47.112Z,28.92
2023-04-07T21:35:14.792Z,32.15
2023-04-07T21:37:42.216Z,29.58
2023-04-07T21:40:09.906Z,28.60
2023-04-07T21:42:37.456Z,31.63
2023-04-07T21:45:05.788Z,31.52
2023-04-07T21:47:33.256Z,35.75
2023-04-07T21:50:00.750Z,37.70
2023-04-07T21:52:28.203Z,32.70
2023-04-07T21:54:55.865Z,33.78
2023-04-07T21:57:23.481Z,36.67
2023-04-07T21:59:50.981Z,33.95
2023-04-07T22:02:18.625Z,34.97
2023-04-07T22:04:46.282Z,36.80
2023-04-07T22:07:14.417Z,40.90
2023-04-07T22:09:41.822Z,36.78
2023-04-07T22:12:09.182Z,35.22
2023-04-07T22:14:36.731Z,37.10
2023-04-07T22:17:04.180Z,32.25
2023-04-07T22:19:31.623Z,37.22
2023-04-07T22:21:59.062Z,32.00
2023-04-07T22:24:26.493Z,33.97
2023-04-07T22:26:55.381Z,32.67
2023-04-07T22:29:22.905Z,38.83
2023-04-07T22:31:50.465Z,47.33
2023-04-07T22:34:18.440Z,42.28
2023-04-07T22:36:46.341Z,38.17
2023-04-07T22:39:13.795Z,37.90
2023-04-07T22:41:41.226Z,35.50
2023-04-07T22:44:08.627Z,37.03
2023-04-07T22:46:36.104Z,35.90
2023-04-07T22:49:04.520Z,39.60
2023-04-07T22:51:31.983Z,37.60
2023-04-07T22:53:59.439Z,33.70
2023-04-07T22:56:27.248Z,38.40
2023-04-07T22:58:54.736Z,32.50
2023-04-07T23:01:22.321Z,35.80
2023-04-07T23:03:49.834Z,36.28
2023-04-07T23:06:17.305Z,40.22
2023-04-07T23:08:45.558Z,40.83
2023-04-07T23:11:13.125Z,36.58
2023-04-07T23:13:40.672Z,34.53
2023-04-07T23:16:12.859Z,37.50
2023-04-07T23:18:41.145Z,44.53
2023-04-07T23:21:08.984Z,41.92
2023-04-07T23:23:36.649Z,42.80
2023-04-07T23:26:04.174Z,35.22
2023-04-07T23:28:31.693Z,38.60
2023-04-07T23:30:59.117Z,39.83
2023-04-07T23:33:26.597Z,35.65
2023-04-07T23:35:54.102Z,37.88
2023-04-07T23:38:21.647Z,37.95
2023-04-07T23:40:49.073Z,36.70
2023-04-07T23:43:16.812Z,37.53
2023-04-07T23:45:44.403Z,34.70
2023-04-07T23:48:11.872Z,39.80
2023-04-07T23:50:39.601Z,37.58
2023-04-07T23:53:07.304Z,39.28
2023-04-07T23:55:34.802Z,39.05
2023-04-07T23:58:02.317Z,42.72
